AirNav   Air Wisconsin pilot careers
 
 1219 users online  

3FK Franklin Flying Field Airport
Franklin, Indiana, USA

GOING TO FRANKLIN?


FAA INFORMATION EFFECTIVE 24 MAY 2018

Location

FAA Identifier: 3FK
Lat/Long: 39-25-35.1800N / 086-03-29.9590W
39-25.586333N / 086-03.499317W
39.4264389 / -86.0583219
(estimated)
Elevation: 740 ft. / 226 m (estimated)
Variation: 02W (1985)
From city: 3 miles S of FRANKLIN, IN
Time zone: UTC -4 (UTC -5 during Standard Time)
Zip code: 46131

Airport Operations

Airport use: Open to the public
Activation date: 03/1942
Control tower: no
ARTCC: INDIANAPOLIS CENTER
FSS: TERRE HAUTE FLIGHT SERVICE STATION
NOTAMs facility: HUF (NOTAM-D service available)
Attendance: IREG
Wind indicator: lighted
Segmented circle: no
Lights: SS-SR
Beacon: white-green (lighted land airport)
Operates sunset to sunrise.

Airport Communications

CTAF/UNICOM: 122.7
WX AWOS-3 at HBE (5 nm S): 119.675 (812-526-1745)
WX AWOS-3P at HFY (12 nm N): 118.525 (317-882-5862)
WX AWOS-3 at BAK (12 nm SE): 119.75 (812-376-7584)
WX ASOS at GEZ (15 nm NE): 121.55 (317-398-0246)

Nearby radio navigation aids

VOR radial/distance  VOR name  Freq  Var
SHBr220/16.4SHELBYVILLE VOR/DME112.0001E
VHPr147/27.3BRICKYARD VORTAC116.3001E
OOMr059/30.8HOOSIER VORTAC110.2002W

 
NDB name  Hdg/Dist  Freq  Var  ID
CLIFS302/12.841003WBA -... .-
METROPOLITAN184/30.733803WUMP ..- -- .--.
BATESVILLE282/37.425405WHLB .... .-.. -...

Airport Services

Fuel available: 100LL
Parking: hangars and tiedowns
Airframe service: MAJOR
Powerplant service: MAJOR
Bulk oxygen: NONE

Runway Information

Runway 3/21

Dimensions: 2400 x 35 ft. / 732 x 11 m
Surface: asphalt, in good condition
Runway edge lights: non-standard
RWY 03/21 NSTD LIRL; LGTS ON EAST SIDE 110 FT FM RWY EDGE.
RUNWAY 3  RUNWAY 21
Latitude: 39-25.408833N39-25.753000N
Longitude: 086-03.667000W086-03.415833W
Elevation: 735.0 ft.721.0 ft.
Traffic pattern: leftleft
Displaced threshold: 125 ft.165 ft.
Markings: NSTD, in good condition
Runway end identifier lights: nono
Obstructions: 40 ft. tree, 863 ft. from runway, 16:1 slope to clear
RWY 3 TREES 125 FT LEFT OF CL 163 FT FROM RWY END
10 ft. crops, 201 ft. from runway
RWY 21 SEASONAL CROPS 66 FT R OF CL AND 113 FT L OF CL

Airport Ownership and Management from official FAA records

Ownership: Privately-owned
Owner: SIHERB AVIATION CORP
3477 S. 200 E.
FRANKLIN, IN 46131
Phone 317-549-5273
Manager: ROBERT COHEN
3477 S. 200 E.
FRANKLIN, IN 46131
Phone (317) 999-7883

Airport Operational Statistics

Aircraft based on the field: 43
Single engine airplanes: 41
Multi engine airplanes: 1
Helicopters: 1
    

Additional Remarks

FOR CD CTC IND APCH AT 317-227-5743.

Instrument Procedures

There are no published instrument procedures at 3FK.

Some nearby airports with instrument procedures:

KHFY - Indy South Greenwood Airport (12 nm N)
KBAK - Columbus Municipal Airport (12 nm SE)
KGEZ - Shelbyville Municipal Airport (15 nm NE)
KIND - Indianapolis International Airport (21 nm NW)
8A4 - Indianapolis Downtown Heliport (21 nm N)
 
Loc | Ops | Rwys | IFR | FBO | Links
Com | Nav | Svcs | Stats | Notes

AirNav Hotels Sweepstakes
 
Area around 3FK (Franklin Flying Field Airport)
 
Road maps at: MapQuest Bing Google
 
Aerial photo
WARNING: Photo may not be current or correct
Aerial photo of 3FK (Franklin Flying Field Airport)
Photo by George Webb
Photo taken 24-Apr-2006

Do you have a better or more recent aerial photo of Franklin Flying Field Airport that you would like to share? If so, please send us your photo.

 
Sectional chart

 
Airport distance calculator
Flying to Franklin Flying Field Airport? Find the distance to fly.

From to 3FK

Sunrise and sunset
Times for 25-May-2018
 Local
(UTC-4)
 Zulu
(UTC)
Morning civil twilight05:5309:53
Sunrise06:2410:24
Sunset20:5900:59
Evening civil twilight21:3001:30

Current date and time
Zulu (UTC)  25-May-2018 20:12:50
Local (UTC-4)  25-May-2018 16:12:50
 
METAR
KBAK 
12nm SE 
251945Z 19006KT 10SM SKC 29/10 A2992
KHFY 
12nm N 
251950Z AUTO 23006KT 10SM CLR 29/13 A2992 RMK AO2 T02930130
KGEZ 
15nm NE 
251953Z AUTO 16011KT 10SM CLR 31/13 A2990 RMK AO2 SLP120 T03060128
KIND 
20nm NW 
251954Z 20009KT 160V240 10SM FEW065 FEW250 31/13 A2989 RMK AO2 SLP115 T03060133
TAF
KIND 
20nm NW 
251720Z 2518/2624 22005KT P6SM FEW090 SCT200 FM260600 VRB03KT P6SM VCTS SCT050CB BKN100 FM261400 VRB03KT P6SM BKN050 FM261700 23005KT P6SM SCT045
NOTAMs
Click for the latest NOTAMs
NOTAMs are issued by the DoD/FAA and will open in a separate window not controlled by AirNav.

 

 
 

FBO, Fuel Providers, and Aircraft Ground Support

  
 Business Name 
 
 Contact 
 
 Services / Description 
 
Fuel Prices
 
Comments
  
Franklin Flying Field 317-736-8359
no information available

If you are affiliated with Franklin Flying Field and would like to show here your services, contact info, web link, logo, and more, click here
100LL
SS $6.50 
 Updated 30-Jun-2014
 
   write
SS=Self service
Update Fuel Prices
 

Would you like to see your business listed on this page?

 If your business provides an interesting product or service to pilots, flight crews, aircraft, or users of the Franklin Flying Field Airport, you should consider listing it here.  To start the listing process, click on the button below
 
Add a business
 

Other Pages about Franklin Flying Field Airport

www.franklinflyingfield.com
 
Update a link
 
Copyright © AirNav, LLC. All rights reserved. Privacy Policy  Contact